sensor_id;sensor_type;location;lat;lon;timestamp;temperature;humidity
14682;DHT22;7429;52.498;13.480;2022-10-26T00:01:03;8.90;99.90
14682;DHT22;7429;52.498;13.480;2022-10-26T00:04:08;8.80;99.90
14682;DHT22;7429;52.498;13.480;2022-10-26T00:07:11;8.80;99.90
14682;DHT22;7429;52.498;13.480;2022-10-26T00:10:14;8.80;99.90
14682;DHT22;7429;52.498;13.480;2022-10-26T00:13:17;8.80;99.90
14682;DHT22;7429;52.498;13.480;2022-10-26T00:16:23;8.80;99.90
14682;DHT22;7429;52.498;13.480;2022-10-26T00:19:28;8.80;99.90
14682;DHT22;7429;52.498;13.480;2022-10-26T00:22:31;8.80;99.90
14682;DHT22;7429;52.498;13.480;2022-10-26T00:25:34;8.80;99.90
14682;DHT22;7429;52.498;13.480;2022-10-26T00:28:37;8.70;99.90
14682;DHT22;7429;52.498;13.480;2022-10-26T00:31:40;8.70;99.90
14682;DHT22;7429;52.498;13.480;2022-10-26T00:34:44;8.70;99.90
14682;DHT22;7429;52.498;13.480;2022-10-26T00:37:47;8.70;99.90
14682;DHT22;7429;52.498;13.480;2022-10-26T00:40:51;8.70;99.90
14682;DHT22;7429;52.498;13.480;2022-10-26T00:43:54;8.70;99.90
14682;DHT22;7429;52.498;13.480;2022-10-26T00:46:59;8.70;99.90
14682;DHT22;7429;52.498;13.480;2022-10-26T00:50:07;8.70;99.90
14682;DHT22;7429;52.498;13.480;2022-10-26T00:53:12;8.70;99.90
14682;DHT22;7429;52.498;13.480;2022-10-26T00:56:16;8.60;99.90
14682;DHT22;7429;52.498;13.480;2022-10-26T00:59:20;8.60;99.90
14682;DHT22;7429;52.498;13.480;2022-10-26T01:02:24;8.60;99.90
14682;DHT22;7429;52.498;13.480;2022-10-26T01:05:29;8.60;99.90
14682;DHT22;7429;52.498;13.480;2022-10-26T01:08:32;8.50;99.90
14682;DHT22;7429;52.498;13.480;2022-10-26T01:11:36;8.50;99.90
14682;DHT22;7429;52.498;13.480;2022-10-26T01:14:39;8.50;99.90
14682;DHT22;7429;52.498;13.480;2022-10-26T01:17:53;8.50;99.90
14682;DHT22;7429;52.498;13.480;2022-10-26T01:25:01;8.50;99.90
14682;DHT22;7429;52.498;13.480;2022-10-26T01:28:12;8.50;99.90
14682;DHT22;7429;52.498;13.480;2022-10-26T01:31:30;8.40;99.90
14682;DHT22;7429;52.498;13.480;2022-10-26T01:34:42;8.40;99.90
14682;DHT22;7429;52.498;13.480;2022-10-26T01:37:49;8.40;99.90
14682;DHT22;7429;52.498;13.480;2022-10-26T01:40:59;8.40;99.90
14682;DHT22;7429;52.498;13.480;2022-10-26T01:44:09;8.40;99.90
14682;DHT22;7429;52.498;13.480;2022-10-26T01:47:17;8.30;99.90
14682;DHT22;7429;52.498;13.480;2022-10-26T01:50:22;8.30;99.90
14682;DHT22;7429;52.498;13.480;2022-10-26T01:53:26;8.30;99.90
14682;DHT22;7429;52.498;13.480;2022-10-26T01:56:33;8.30;99.90
14682;DHT22;7429;52.498;13.480;2022-10-26T01:59:52;8.30;99.90
14682;DHT22;7429;52.498;13.480;2022-10-26T02:03:10;8.20;99.90
14682;DHT22;7429;52.498;13.480;2022-10-26T02:06:24;8.20;99.90
14682;DHT22;7429;52.498;13.480;2022-10-26T02:09:38;8.20;99.90
14682;DHT22;7429;52.498;13.480;2022-10-26T02:12:53;8.20;99.90
14682;DHT22;7429;52.498;13.480;2022-10-26T02:16:06;8.20;99.90
14682;DHT22;7429;52.498;13.480;2022-10-26T02:19:31;8.10;99.90
14682;DHT22;7429;52.498;13.480;2022-10-26T02:22:38;8.10;99.90
14682;DHT22;7429;52.498;13.480;2022-10-26T02:25:46;8.10;99.90
14682;DHT22;7429;52.498;13.480;2022-10-26T02:28:53;8.00;99.90
14682;DHT22;7429;52.498;13.480;2022-10-26T02:31:58;8.00;99.90
14682;DHT22;7429;52.498;13.480;2022-10-26T02:35:04;8.00;99.90
14682;DHT22;7429;52.498;13.480;2022-10-26T02:38:09;8.00;99.90
14682;DHT22;7429;52.498;13.480;2022-10-26T02:41:15;8.00;99.90
14682;DHT22;7429;52.498;13.480;2022-10-26T02:44:22;8.00;99.90
14682;DHT22;7429;52.498;13.480;2022-10-26T02:47:28;7.90;99.90
14682;DHT22;7429;52.498;13.480;2022-10-26T02:50:43;7.90;99.90
14682;DHT22;7429;52.498;13.480;2022-10-26T02:53:56;7.90;99.90
14682;DHT22;7429;52.498;13.480;2022-10-26T02:57:04;7.90;99.90
14682;DHT22;7429;52.498;13.480;2022-10-26T03:00:14;7.90;99.90
14682;DHT22;7429;52.498;13.480;2022-10-26T03:03:18;7.90;99.90
14682;DHT22;7429;52.498;13.480;2022-10-26T03:06:23;7.90;99.90
14682;DHT22;7429;52.498;13.480;2022-10-26T03:09:27;7.80;99.90
14682;DHT22;7429;52.498;13.480;2022-10-26T03:12:30;7.80;99.90
14682;DHT22;7429;52.498;13.480;2022-10-26T03:15:33;7.80;99.90
14682;DHT22;7429;52.498;13.480;2022-10-26T03:18:36;7.80;99.90
14682;DHT22;7429;52.498;13.480;2022-10-26T03:21:40;7.80;99.90
14682;DHT22;7429;52.498;13.480;2022-10-26T03:24:43;7.70;99.90
14682;DHT22;7429;52.498;13.480;2022-10-26T03:27:46;7.70;99.90
14682;DHT22;7429;52.498;13.480;2022-10-26T03:30:50;7.70;99.90
14682;DHT22;7429;52.498;13.480;2022-10-26T03:33:53;7.70;99.90
14682;DHT22;7429;52.498;13.480;2022-10-26T03:36:57;7.70;99.90
14682;DHT22;7429;52.498;13.480;2022-10-26T03:40:00;7.70;99.90
14682;DHT22;7429;52.498;13.480;2022-10-26T03:43:03;7.60;99.90
14682;DHT22;7429;52.498;13.480;2022-10-26T03:46:06;7.60;99.90
14682;DHT22;7429;52.498;13.480;2022-10-26T03:49:09;7.60;99.90
14682;DHT22;7429;52.498;13.480;2022-10-26T03:52:13;7.60;99.90
14682;DHT22;7429;52.498;13.480;2022-10-26T03:55:16;7.60;99.90
14682;DHT22;7429;52.498;13.480;2022-10-26T03:58:20;7.50;99.90
14682;DHT22;7429;52.498;13.480;2022-10-26T04:01:23;7.50;99.90
14682;DHT22;7429;52.498;13.480;2022-10-26T04:04:26;7.50;99.90
14682;DHT22;7429;52.498;13.480;2022-10-26T04:07:30;7.50;99.90
14682;DHT22;7429;52.498;13.480;2022-10-26T04:10:33;7.50;99.90
14682;DHT22;7429;52.498;13.480;2022-10-26T04:13:36;7.50;99.90
14682;DHT22;7429;52.498;13.480;2022-10-26T04:16:39;7.50;99.90
14682;DHT22;7429;52.498;13.480;2022-10-26T04:19:42;7.50;99.90
14682;DHT22;7429;52.498;13.480;2022-10-26T04:22:46;7.50;99.90
14682;DHT22;7429;52.498;13.480;2022-10-26T04:25:49;7.50;99.90
14682;DHT22;7429;52.498;13.480;2022-10-26T04:28:52;7.40;99.90
14682;DHT22;7429;52.498;13.480;2022-10-26T04:31:55;7.40;99.90
14682;DHT22;7429;52.498;13.480;2022-10-26T04:34:58;7.40;99.90
14682;DHT22;7429;52.498;13.480;2022-10-26T04:38:04;7.40;99.90
14682;DHT22;7429;52.498;13.480;2022-10-26T04:41:08;7.40;99.90
14682;DHT22;7429;52.498;13.480;2022-10-26T04:44:11;7.30;99.90
14682;DHT22;7429;52.498;13.480;2022-10-26T04:47:14;7.30;99.90
14682;DHT22;7429;52.498;13.480;2022-10-26T04:50:17;7.30;99.90
14682;DHT22;7429;52.498;13.480;2022-10-26T04:53:23;7.40;99.90
14682;DHT22;7429;52.498;13.480;2022-10-26T04:56:26;7.40;99.90
14682;DHT22;7429;52.498;13.480;2022-10-26T04:59:28;7.40;99.90
14682;DHT22;7429;52.498;13.480;2022-10-26T05:02:31;7.50;99.90
14682;DHT22;7429;52.498;13.480;2022-10-26T05:05:35;7.50;99.90
14682;DHT22;7429;52.498;13.480;2022-10-26T05:08:40;7.50;99.90
14682;DHT22;7429;52.498;13.480;2022-10-26T05:11:43;7.50;99.90
14682;DHT22;7429;52.498;13.480;2022-10-26T05:14:46;7.50;99.90
14682;DHT22;7429;52.498;13.480;2022-10-26T05:17:54;7.60;99.90
14682;DHT22;7429;52.498;13.480;2022-10-26T05:20:58;7.60;99.90
14682;DHT22;7429;52.498;13.480;2022-10-26T05:24:02;7.60;99.90
14682;DHT22;7429;52.498;13.480;2022-10-26T05:27:12;7.60;99.90
14682;DHT22;7429;52.498;13.480;2022-10-26T05:30:15;7.60;99.90
14682;DHT22;7429;52.498;13.480;2022-10-26T05:33:18;7.60;99.90
14682;DHT22;7429;52.498;13.480;2022-10-26T05:36:21;7.60;99.90
14682;DHT22;7429;52.498;13.480;2022-10-26T05:39:26;7.50;99.90
14682;DHT22;7429;52.498;13.480;2022-10-26T05:42:29;7.60;99.90
14682;DHT22;7429;52.498;13.480;2022-10-26T05:45:32;7.60;99.90
14682;DHT22;7429;52.498;13.480;2022-10-26T05:48:34;7.50;99.90
14682;DHT22;7429;52.498;13.480;2022-10-26T05:51:37;7.60;99.90
14682;DHT22;7429;52.498;13.480;2022-10-26T05:54:43;7.50;99.90
14682;DHT22;7429;52.498;13.480;2022-10-26T05:57:46;7.50;99.90
14682;DHT22;7429;52.498;13.480;2022-10-26T06:01:03;7.50;99.90
14682;DHT22;7429;52.498;13.480;2022-10-26T06:04:20;7.50;99.90
14682;DHT22;7429;52.498;13.480;2022-10-26T06:07:31;7.60;99.90
14682;DHT22;7429;52.498;13.480;2022-10-26T06:10:36;7.60;99.90
14682;DHT22;7429;52.498;13.480;2022-10-26T06:13:40;7.60;99.90
14682;DHT22;7429;52.498;13.480;2022-10-26T06:16:53;7.60;99.90
14682;DHT22;7429;52.498;13.480;2022-10-26T06:20:16;7.70;99.90
14682;DHT22;7429;52.498;13.480;2022-10-26T06:23:45;7.60;99.90
14682;DHT22;7429;52.498;13.480;2022-10-26T06:26:57;7.60;99.90
14682;DHT22;7429;52.498;13.480;2022-10-26T06:30:04;7.60;99.90
14682;DHT22;7429;52.498;13.480;2022-10-26T06:33:08;7.60;99.90
14682;DHT22;7429;52.498;13.480;2022-10-26T06:36:29;7.50;99.90
14682;DHT22;7429;52.498;13.480;2022-10-26T06:39:36;7.50;99.90
14682;DHT22;7429;52.498;13.480;2022-10-26T06:42:45;7.60;99.90
14682;DHT22;7429;52.498;13.480;2022-10-26T06:45:59;7.60;99.90
14682;DHT22;7429;52.498;13.480;2022-10-26T06:49:13;7.60;99.90
14682;DHT22;7429;52.498;13.480;2022-10-26T06:52:27;7.60;99.90
14682;DHT22;7429;52.498;13.480;2022-10-26T06:55:39;7.70;99.90
14682;DHT22;7429;52.498;13.480;2022-10-26T06:58:45;7.70;99.90
14682;DHT22;7429;52.498;13.480;2022-10-26T07:01:50;7.70;99.90
14682;DHT22;7429;52.498;13.480;2022-10-26T07:04:53;7.70;99.90
14682;DHT22;7429;52.498;13.480;2022-10-26T07:07:56;7.80;99.90
14682;DHT22;7429;52.498;13.480;2022-10-26T07:10:59;7.80;99.90
14682;DHT22;7429;52.498;13.480;2022-10-26T07:14:04;7.80;99.90
14682;DHT22;7429;52.498;13.480;2022-10-26T07:17:08;7.90;99.90
14682;DHT22;7429;52.498;13.480;2022-10-26T07:20:12;8.00;99.90
14682;DHT22;7429;52.498;13.480;2022-10-26T07:23:15;8.00;99.90
14682;DHT22;7429;52.498;13.480;2022-10-26T07:26:18;8.00;99.90
14682;DHT22;7429;52.498;13.480;2022-10-26T07:29:24;8.10;99.90
14682;DHT22;7429;52.498;13.480;2022-10-26T07:32:27;8.10;99.90
14682;DHT22;7429;52.498;13.480;2022-10-26T07:35:31;8.20;99.90
14682;DHT22;7429;52.498;13.480;2022-10-26T07:38:34;8.20;99.90
14682;DHT22;7429;52.498;13.480;2022-10-26T07:41:38;8.30;99.90
14682;DHT22;7429;52.498;13.480;2022-10-26T07:44:42;8.40;99.90
14682;DHT22;7429;52.498;13.480;2022-10-26T07:47:45;8.50;99.90
14682;DHT22;7429;52.498;13.480;2022-10-26T07:50:48;8.60;99.90
14682;DHT22;7429;52.498;13.480;2022-10-26T07:53:51;8.70;99.90
14682;DHT22;7429;52.498;13.480;2022-10-26T07:56:54;8.70;99.90
14682;DHT22;7429;52.498;13.480;2022-10-26T07:59:58;8.70;99.90
14682;DHT22;7429;52.498;13.480;2022-10-26T08:03:01;8.80;99.90
14682;DHT22;7429;52.498;13.480;2022-10-26T08:06:05;8.80;99.90
14682;DHT22;7429;52.498;13.480;2022-10-26T08:09:10;8.90;99.90
14682;DHT22;7429;52.498;13.480;2022-10-26T08:12:13;9.00;99.90
14682;DHT22;7429;52.498;13.480;2022-10-26T08:15:18;9.00;99.90
14682;DHT22;7429;52.498;13.480;2022-10-26T08:18:21;9.10;99.90
14682;DHT22;7429;52.498;13.480;2022-10-26T08:21:24;9.20;99.90
14682;DHT22;7429;52.498;13.480;2022-10-26T08:24:40;9.30;99.90
14682;DHT22;7429;52.498;13.480;2022-10-26T08:27:44;9.40;99.90
14682;DHT22;7429;52.498;13.480;2022-10-26T08:30:49;9.50;99.90
14682;DHT22;7429;52.498;13.480;2022-10-26T08:33:51;9.60;99.90
14682;DHT22;7429;52.498;13.480;2022-10-26T08:36:54;9.70;99.90
14682;DHT22;7429;52.498;13.480;2022-10-26T08:39:57;9.70;99.90
14682;DHT22;7429;52.498;13.480;2022-10-26T08:43:09;9.90;99.90
14682;DHT22;7429;52.498;13.480;2022-10-26T08:46:20;10.00;99.90
14682;DHT22;7429;52.498;13.480;2022-10-26T08:49:28;10.20;99.90
14682;DHT22;7429;52.498;13.480;2022-10-26T08:52:39;10.30;99.90
14682;DHT22;7429;52.498;13.480;2022-10-26T08:55:46;10.40;99.90
14682;DHT22;7429;52.498;13.480;2022-10-26T08:58:55;10.50;99.90
14682;DHT22;7429;52.498;13.480;2022-10-26T09:02:02;10.60;99.90
14682;DHT22;7429;52.498;13.480;2022-10-26T09:05:13;10.60;99.90
14682;DHT22;7429;52.498;13.480;2022-10-26T09:08:28;10.80;99.90
14682;DHT22;7429;52.498;13.480;2022-10-26T09:11:46;11.00;99.90
14682;DHT22;7429;52.498;13.480;2022-10-26T09:15:04;11.10;99.90
14682;DHT22;7429;52.498;13.480;2022-10-26T09:18:24;11.20;99.90
14682;DHT22;7429;52.498;13.480;2022-10-26T09:21:39;11.30;99.90
14682;DHT22;7429;52.498;13.480;2022-10-26T09:24:50;11.50;99.90
14682;DHT22;7429;52.498;13.480;2022-10-26T09:27:56;11.50;99.90
14682;DHT22;7429;52.498;13.480;2022-10-26T09:31:02;11.60;99.90
14682;DHT22;7429;52.498;13.480;2022-10-26T09:34:15;11.80;99.90
14682;DHT22;7429;52.498;13.480;2022-10-26T09:37:24;11.90;99.90
14682;DHT22;7429;52.498;13.480;2022-10-26T09:40:32;12.10;99.90
14682;DHT22;7429;52.498;13.480;2022-10-26T09:43:43;12.30;99.90
14682;DHT22;7429;52.498;13.480;2022-10-26T09:46:55;12.50;99.90
14682;DHT22;7429;52.498;13.480;2022-10-26T09:50:13;12.70;99.90
14682;DHT22;7429;52.498;13.480;2022-10-26T09:53:20;12.80;99.90
14682;DHT22;7429;52.498;13.480;2022-10-26T09:56:25;13.10;99.90
14682;DHT22;7429;52.498;13.480;2022-10-26T09:59:33;13.30;99.90
14682;DHT22;7429;52.498;13.480;2022-10-26T10:02:41;13.40;99.90
14682;DHT22;7429;52.498;13.480;2022-10-26T10:05:46;13.70;99.90
14682;DHT22;7429;52.498;13.480;2022-10-26T10:09:05;13.70;99.90
14682;DHT22;7429;52.498;13.480;2022-10-26T10:12:19;13.90;99.90
14682;DHT22;7429;52.498;13.480;2022-10-26T10:15:23;14.00;99.90
14682;DHT22;7429;52.498;13.480;2022-10-26T10:18:27;14.20;99.90
14682;DHT22;7429;52.498;13.480;2022-10-26T10:21:34;14.30;99.90
14682;DHT22;7429;52.498;13.480;2022-10-26T10:24:40;14.60;99.90
14682;DHT22;7429;52.498;13.480;2022-10-26T10:27:52;14.90;99.90
14682;DHT22;7429;52.498;13.480;2022-10-26T10:30:57;15.20;99.90
14682;DHT22;7429;52.498;13.480;2022-10-26T10:34:14;15.40;99.90
14682;DHT22;7429;52.498;13.480;2022-10-26T10:37:25;15.60;99.90
14682;DHT22;7429;52.498;13.480;2022-10-26T10:40:30;15.90;99.90
14682;DHT22;7429;52.498;13.480;2022-10-26T10:43:33;16.10;99.90
14682;DHT22;7429;52.498;13.480;2022-10-26T10:46:36;16.20;99.90
14682;DHT22;7429;52.498;13.480;2022-10-26T10:49:39;16.40;99.90
14682;DHT22;7429;52.498;13.480;2022-10-26T10:52:46;16.60;99.90
14682;DHT22;7429;52.498;13.480;2022-10-26T10:56:13;16.70;99.90
14682;DHT22;7429;52.498;13.480;2022-10-26T10:59:58;16.80;99.90
14682;DHT22;7429;52.498;13.480;2022-10-26T11:03:13;17.00;99.90
14682;DHT22;7429;52.498;13.480;2022-10-26T11:06:27;17.10;99.90
14682;DHT22;7429;52.498;13.480;2022-10-26T11:09:35;17.30;99.90
14682;DHT22;7429;52.498;13.480;2022-10-26T11:12:45;17.50;99.90
14682;DHT22;7429;52.498;13.480;2022-10-26T11:15:54;17.50;99.90
14682;DHT22;7429;52.498;13.480;2022-10-26T11:19:06;17.50;99.90
14682;DHT22;7429;52.498;13.480;2022-10-26T11:22:22;17.60;99.90
14682;DHT22;7429;52.498;13.480;2022-10-26T11:25:29;17.70;99.90
14682;DHT22;7429;52.498;13.480;2022-10-26T11:28:42;17.80;99.90
14682;DHT22;7429;52.498;13.480;2022-10-26T11:31:52;18.00;99.90
14682;DHT22;7429;52.498;13.480;2022-10-26T11:35:01;18.10;99.90
14682;DHT22;7429;52.498;13.480;2022-10-26T11:38:11;18.30;99.90
14682;DHT22;7429;52.498;13.480;2022-10-26T11:41:39;18.40;99.90
14682;DHT22;7429;52.498;13.480;2022-10-26T11:44:48;18.30;99.90
14682;DHT22;7429;52.498;13.480;2022-10-26T11:48:00;18.40;99.90
14682;DHT22;7429;52.498;13.480;2022-10-26T11:51:13;18.30;99.90
14682;DHT22;7429;52.498;13.480;2022-10-26T11:54:22;18.30;99.90
14682;DHT22;7429;52.498;13.480;2022-10-26T11:57:28;18.40;99.90
14682;DHT22;7429;52.498;13.480;2022-10-26T12:00:32;18.50;99.90
14682;DHT22;7429;52.498;13.480;2022-10-26T12:03:38;18.60;99.90
14682;DHT22;7429;52.498;13.480;2022-10-26T12:06:48;18.70;99.90
14682;DHT22;7429;52.498;13.480;2022-10-26T12:09:52;18.80;99.90
14682;DHT22;7429;52.498;13.480;2022-10-26T12:13:03;18.70;99.90
14682;DHT22;7429;52.498;13.480;2022-10-26T12:16:18;18.70;99.90
14682;DHT22;7429;52.498;13.480;2022-10-26T12:19:27;18.60;99.90
14682;DHT22;7429;52.498;13.480;2022-10-26T12:22:36;18.80;99.90
14682;DHT22;7429;52.498;13.480;2022-10-26T12:25:41;18.90;99.90
14682;DHT22;7429;52.498;13.480;2022-10-26T12:28:45;19.10;99.90
14682;DHT22;7429;52.498;13.480;2022-10-26T12:31:55;19.10;99.90
14682;DHT22;7429;52.498;13.480;2022-10-26T12:35:01;19.10;99.90
14682;DHT22;7429;52.498;13.480;2022-10-26T12:41:58;19.10;99.90
14682;DHT22;7429;52.498;13.480;2022-10-26T12:45:18;19.10;99.90
14682;DHT22;7429;52.498;13.480;2022-10-26T12:48:23;19.00;99.90
14682;DHT22;7429;52.498;13.480;2022-10-26T12:51:41;19.00;99.90
14682;DHT22;7429;52.498;13.480;2022-10-26T12:54:53;19.20;99.90
14682;DHT22;7429;52.498;13.480;2022-10-26T12:58:34;19.20;99.90
14682;DHT22;7429;52.498;13.480;2022-10-26T13:06:02;19.20;99.90
14682;DHT22;7429;52.498;13.480;2022-10-26T13:09:19;19.30;99.90
14682;DHT22;7429;52.498;13.480;2022-10-26T13:12:25;19.40;99.90
14682;DHT22;7429;52.498;13.480;2022-10-26T13:15:34;19.50;99.90
14682;DHT22;7429;52.498;13.480;2022-10-26T13:18:43;19.60;99.90
14682;DHT22;7429;52.498;13.480;2022-10-26T13:21:51;19.60;99.90
14682;DHT22;7429;52.498;13.480;2022-10-26T13:24:57;19.70;99.90
14682;DHT22;7429;52.498;13.480;2022-10-26T13:28:05;19.90;99.90
14682;DHT22;7429;52.498;13.480;2022-10-26T13:34:59;20.00;99.90
14682;DHT22;7429;52.498;13.480;2022-10-26T13:38:08;20.00;99.90
14682;DHT22;7429;52.498;13.480;2022-10-26T13:41:20;20.20;99.90
14682;DHT22;7429;52.498;13.480;2022-10-26T13:44:28;20.30;99.90
14682;DHT22;7429;52.498;13.480;2022-10-26T13:47:41;20.50;99.90
14682;DHT22;7429;52.498;13.480;2022-10-26T13:50:51;20.60;99.90
14682;DHT22;7429;52.498;13.480;2022-10-26T13:53:58;20.60;99.90
14682;DHT22;7429;52.498;13.480;2022-10-26T13:57:14;20.70;99.90
14682;DHT22;7429;52.498;13.480;2022-10-26T14:00:21;20.70;99.90
14682;DHT22;7429;52.498;13.480;2022-10-26T14:03:25;20.60;99.90
14682;DHT22;7429;52.498;13.480;2022-10-26T14:06:33;20.60;99.90
14682;DHT22;7429;52.498;13.480;2022-10-26T14:09:37;20.60;99.90
14682;DHT22;7429;52.498;13.480;2022-10-26T14:12:41;20.60;99.90
14682;DHT22;7429;52.498;13.480;2022-10-26T14:15:45;20.40;99.90
14682;DHT22;7429;52.498;13.480;2022-10-26T14:18:49;20.10;99.90
14682;DHT22;7429;52.498;13.480;2022-10-26T14:21:54;19.80;99.90
14682;DHT22;7429;52.498;13.480;2022-10-26T14:24:59;19.60;99.90
14682;DHT22;7429;52.498;13.480;2022-10-26T14:28:20;19.50;99.90
14682;DHT22;7429;52.498;13.480;2022-10-26T14:31:26;19.30;99.90
14682;DHT22;7429;52.498;13.480;2022-10-26T14:34:30;19.20;99.90
14682;DHT22;7429;52.498;13.480;2022-10-26T14:37:38;19.00;99.90
14682;DHT22;7429;52.498;13.480;2022-10-26T14:40:45;18.90;99.90
14682;DHT22;7429;52.498;13.480;2022-10-26T14:43:48;18.80;99.90
14682;DHT22;7429;52.498;13.480;2022-10-26T14:46:52;18.70;99.90
14682;DHT22;7429;52.498;13.480;2022-10-26T14:49:56;18.60;99.90
14682;DHT22;7429;52.498;13.480;2022-10-26T14:53:04;18.40;99.90
14682;DHT22;7429;52.498;13.480;2022-10-26T14:56:20;18.20;99.90
14682;DHT22;7429;52.498;13.480;2022-10-26T14:59:28;17.90;99.90
14682;DHT22;7429;52.498;13.480;2022-10-26T15:02:33;17.60;99.90
14682;DHT22;7429;52.498;13.480;2022-10-26T15:05:36;17.30;99.90
14682;DHT22;7429;52.498;13.480;2022-10-26T15:08:41;17.20;99.90
14682;DHT22;7429;52.498;13.480;2022-10-26T15:11:57;17.10;99.90
14682;DHT22;7429;52.498;13.480;2022-10-26T15:15:10;17.00;99.90
14682;DHT22;7429;52.498;13.480;2022-10-26T15:18:24;16.90;99.90
14682;DHT22;7429;52.498;13.480;2022-10-26T15:21:32;16.80;99.90
14682;DHT22;7429;52.498;13.480;2022-10-26T15:24:38;16.70;99.90
14682;DHT22;7429;52.498;13.480;2022-10-26T15:27:41;16.60;99.90
14682;DHT22;7429;52.498;13.480;2022-10-26T15:30:57;16.50;99.90
14682;DHT22;7429;52.498;13.480;2022-10-26T15:34:14;16.40;99.90
14682;DHT22;7429;52.498;13.480;2022-10-26T15:37:17;16.40;99.90
14682;DHT22;7429;52.498;13.480;2022-10-26T15:40:22;16.30;99.90
14682;DHT22;7429;52.498;13.480;2022-10-26T15:43:31;16.20;99.90
14682;DHT22;7429;52.498;13.480;2022-10-26T15:46:35;16.10;99.90
14682;DHT22;7429;52.498;13.480;2022-10-26T15:49:39;16.00;99.90
14682;DHT22;7429;52.498;13.480;2022-10-26T15:52:42;16.00;99.90
14682;DHT22;7429;52.498;13.480;2022-10-26T15:55:52;15.90;99.90
14682;DHT22;7429;52.498;13.480;2022-10-26T15:58:57;15.80;99.90
14682;DHT22;7429;52.498;13.480;2022-10-26T16:02:00;15.70;99.90
14682;DHT22;7429;52.498;13.480;2022-10-26T16:05:04;15.60;99.90
14682;DHT22;7429;52.498;13.480;2022-10-26T16:08:08;15.50;99.90
14682;DHT22;7429;52.498;13.480;2022-10-26T16:11:20;15.40;99.90
14682;DHT22;7429;52.498;13.480;2022-10-26T16:14:23;15.20;99.90
14682;DHT22;7429;52.498;13.480;2022-10-26T16:17:28;15.10;99.90
14682;DHT22;7429;52.498;13.480;2022-10-26T16:20:31;15.00;99.90
14682;DHT22;7429;52.498;13.480;2022-10-26T16:23:34;14.90;99.90
14682;DHT22;7429;52.498;13.480;2022-10-26T16:26:38;14.80;99.90
14682;DHT22;7429;52.498;13.480;2022-10-26T16:29:41;14.70;99.90
14682;DHT22;7429;52.498;13.480;2022-10-26T16:32:44;14.60;99.90
14682;DHT22;7429;52.498;13.480;2022-10-26T16:35:54;14.60;99.90
14682;DHT22;7429;52.498;13.480;2022-10-26T16:38:58;14.50;99.90
14682;DHT22;7429;52.498;13.480;2022-10-26T16:42:02;14.50;99.90
14682;DHT22;7429;52.498;13.480;2022-10-26T16:45:07;14.40;99.90
14682;DHT22;7429;52.498;13.480;2022-10-26T16:48:11;14.40;99.90
14682;DHT22;7429;52.498;13.480;2022-10-26T16:51:18;14.40;99.90
14682;DHT22;7429;52.498;13.480;2022-10-26T16:54:22;14.30;99.90
14682;DHT22;7429;52.498;13.480;2022-10-26T16:57:27;14.30;99.90
14682;DHT22;7429;52.498;13.480;2022-10-26T17:00:31;14.30;99.90
14682;DHT22;7429;52.498;13.480;2022-10-26T17:03:36;14.30;99.90
14682;DHT22;7429;52.498;13.480;2022-10-26T17:06:39;14.30;99.90
14682;DHT22;7429;52.498;13.480;2022-10-26T17:09:42;14.30;99.90
14682;DHT22;7429;52.498;13.480;2022-10-26T17:12:46;14.30;99.90
14682;DHT22;7429;52.498;13.480;2022-10-26T17:15:50;14.20;99.90
14682;DHT22;7429;52.498;13.480;2022-10-26T17:18:53;14.30;99.90
14682;DHT22;7429;52.498;13.480;2022-10-26T17:21:56;14.20;99.90
14682;DHT22;7429;52.498;13.480;2022-10-26T17:24:59;14.20;99.90
14682;DHT22;7429;52.498;13.480;2022-10-26T17:28:03;14.20;99.90
14682;DHT22;7429;52.498;13.480;2022-10-26T17:31:08;14.20;99.90
14682;DHT22;7429;52.498;13.480;2022-10-26T17:34:15;14.20;99.90
14682;DHT22;7429;52.498;13.480;2022-10-26T17:37:18;14.20;99.90
14682;DHT22;7429;52.498;13.480;2022-10-26T17:40:21;14.20;99.90
14682;DHT22;7429;52.498;13.480;2022-10-26T17:43:28;14.20;99.90
14682;DHT22;7429;52.498;13.480;2022-10-26T17:46:32;14.20;99.90
14682;DHT22;7429;52.498;13.480;2022-10-26T17:49:35;14.10;99.90
14682;DHT22;7429;52.498;13.480;2022-10-26T17:52:38;14.10;99.90
14682;DHT22;7429;52.498;13.480;2022-10-26T17:55:41;14.10;99.90
14682;DHT22;7429;52.498;13.480;2022-10-26T17:58:51;14.00;99.90
14682;DHT22;7429;52.498;13.480;2022-10-26T18:01:55;14.00;99.90
14682;DHT22;7429;52.498;13.480;2022-10-26T18:04:58;14.00;99.90
14682;DHT22;7429;52.498;13.480;2022-10-26T18:08:07;14.00;99.90
14682;DHT22;7429;52.498;13.480;2022-10-26T18:11:12;14.00;99.90
14682;DHT22;7429;52.498;13.480;2022-10-26T18:14:17;14.00;99.90
14682;DHT22;7429;52.498;13.480;2022-10-26T18:17:20;14.00;99.90
14682;DHT22;7429;52.498;13.480;2022-10-26T18:20:23;14.00;99.90
14682;DHT22;7429;52.498;13.480;2022-10-26T18:23:27;14.10;99.90
14682;DHT22;7429;52.498;13.480;2022-10-26T18:26:30;14.10;99.90
14682;DHT22;7429;52.498;13.480;2022-10-26T18:29:35;14.10;99.90
14682;DHT22;7429;52.498;13.480;2022-10-26T18:32:40;14.10;99.90
14682;DHT22;7429;52.498;13.480;2022-10-26T18:35:43;14.00;99.90
14682;DHT22;7429;52.498;13.480;2022-10-26T18:38:47;14.00;99.90
14682;DHT22;7429;52.498;13.480;2022-10-26T18:41:50;14.00;99.90
14682;DHT22;7429;52.498;13.480;2022-10-26T18:44:55;14.00;99.90
14682;DHT22;7429;52.498;13.480;2022-10-26T18:48:02;14.00;99.90
14682;DHT22;7429;52.498;13.480;2022-10-26T18:51:07;14.00;99.90
14682;DHT22;7429;52.498;13.480;2022-10-26T18:54:11;14.00;99.90
14682;DHT22;7429;52.498;13.480;2022-10-26T18:57:16;14.10;99.90
14682;DHT22;7429;52.498;13.480;2022-10-26T19:00:21;14.10;99.90
14682;DHT22;7429;52.498;13.480;2022-10-26T19:03:24;14.00;99.90
14682;DHT22;7429;52.498;13.480;2022-10-26T19:06:29;14.10;99.90
14682;DHT22;7429;52.498;13.480;2022-10-26T19:09:32;14.10;99.90
14682;DHT22;7429;52.498;13.480;2022-10-26T19:12:38;14.00;99.90
14682;DHT22;7429;52.498;13.480;2022-10-26T19:15:43;14.00;99.90
14682;DHT22;7429;52.498;13.480;2022-10-26T19:18:46;14.00;99.90
14682;DHT22;7429;52.498;13.480;2022-10-26T19:21:49;14.00;99.90
14682;DHT22;7429;52.498;13.480;2022-10-26T19:24:52;14.00;99.90
14682;DHT22;7429;52.498;13.480;2022-10-26T19:27:55;14.00;99.90
14682;DHT22;7429;52.498;13.480;2022-10-26T19:31:02;13.90;99.90
14682;DHT22;7429;52.498;13.480;2022-10-26T19:34:06;13.90;99.90
14682;DHT22;7429;52.498;13.480;2022-10-26T19:37:09;13.90;99.90
14682;DHT22;7429;52.498;13.480;2022-10-26T19:40:13;13.90;99.90
14682;DHT22;7429;52.498;13.480;2022-10-26T19:43:15;13.80;99.90
14682;DHT22;7429;52.498;13.480;2022-10-26T19:46:22;13.80;99.90
14682;DHT22;7429;52.498;13.480;2022-10-26T19:49:26;13.80;99.90
14682;DHT22;7429;52.498;13.480;2022-10-26T19:52:29;13.70;99.90
14682;DHT22;7429;52.498;13.480;2022-10-26T19:55:32;13.60;99.90
14682;DHT22;7429;52.498;13.480;2022-10-26T19:58:36;13.50;99.90
14682;DHT22;7429;52.498;13.480;2022-10-26T20:01:40;13.50;99.90
14682;DHT22;7429;52.498;13.480;2022-10-26T20:04:43;13.30;99.90